Time;durP1;ratioP1;P1;durP2;ratioP2;P2;SDS_P1;SDS_P2;PMS_P1;PMS_P2;Temp;Humidity;BMP_temperature;BMP_pressure;BME280_temperature;BME280_humidity;BME280_pressure;Samples;Min_cycle;Max_cycle;Signal;HPM_P1;HPM_P2
2023/04/20 00:01:02;;;;;;;;;;;;;;;8.60;100.00;99240.94;5053646;28;1953;-56
2023/04/20 00:03:31;;;;;;;;;;;;;;;8.58;100.00;99232.31;5053671;28;883;-56
2023/04/20 00:06:00;;;;;;;;;;;;;;;8.60;100.00;99235.44;5035465;28;770;-56
2023/04/20 00:08:27;;;;;;;;;;;;;;;8.58;100.00;99224.03;5053429;28;1000;-57
2023/04/20 00:10:54;;;;;;;;;;;;;;;8.58;100.00;99227.56;5053239;28;886;-56
2023/04/20 00:13:21;;;;;;;;;;;;;;;8.58;100.00;99221.28;5053101;28;1271;-56
2023/04/20 00:15:47;;;;;;;;;;;;;;;8.59;100.00;99220.09;5053115;28;1058;-56
2023/04/20 00:18:14;;;;;;;;;;;;;;;8.60;100.00;99218.91;5052354;28;857;-56
2023/04/20 00:20:41;;;;;;;;;;;;;;;8.58;100.00;99202.78;5052989;28;1918;-56
2023/04/20 00:23:07;;;;;;;;;;;;;;;8.58;100.00;99218.53;5053068;28;874;-56
2023/04/20 00:25:34;;;;;;;;;;;;;;;8.55;100.00;99219.31;5052989;28;897;-56
2023/04/20 00:28:01;;;;;;;;;;;;;;;8.55;100.00;99209.06;5052947;28;933;-56
2023/04/20 00:30:27;;;;;;;;;;;;;;;8.57;100.00;99214.97;5052888;28;859;-56
2023/04/20 00:32:54;;;;;;;;;;;;;;;8.58;100.00;99210.25;5052944;28;807;-56
2023/04/20 00:35:21;;;;;;;;;;;;;;;8.62;100.00;99208.28;5052888;28;1003;-56
2023/04/20 00:37:47;;;;;;;;;;;;;;;8.69;100.00;99212.94;5052915;28;835;-56
2023/04/20 00:40:14;;;;;;;;;;;;;;;8.75;100.00;99209.34;5052930;28;811;-56
2023/04/20 00:42:41;;;;;;;;;;;;;;;8.77;100.00;99217.22;5052596;28;1943;-56
2023/04/20 00:45:08;;;;;;;;;;;;;;;8.79;100.00;99217.59;5052804;28;794;-56
2023/04/20 00:47:35;;;;;;;;;;;;;;;8.75;100.00;99214.09;5052719;28;866;-56
2023/04/20 00:50:02;;;;;;;;;;;;;;;8.68;100.00;99216.88;5052812;28;858;-56
2023/04/20 00:52:30;;;;;;;;;;;;;;;8.61;100.00;99223.22;5052631;28;819;-56
2023/04/20 00:54:56;;;;;;;;;;;;;;;8.51;100.00;99221.31;5052472;28;835;-57
2023/04/20 00:57:22;;;;;;;;;;;;;;;8.40;100.00;99218.59;5052666;28;906;-56
2023/04/20 00:59:52;;;;;;;;;;;;;;;8.37;100.00;99211.13;5052500;28;914;-56
2023/04/20 01:02:19;;;;;;;;;;;;;;;8.37;100.00;99224.91;5052298;28;1882;-55
2023/04/20 01:04:46;;;;;;;;;;;;;;;8.43;100.00;99215.06;5052343;28;890;-57
2023/04/20 01:07:13;;;;;;;;;;;;;;;8.46;100.00;99219.75;5052309;28;802;-56
2023/04/20 01:09:39;;;;;;;;;;;;;;;8.42;100.00;99219.00;5051033;28;1082;-56
2023/04/20 01:12:06;;;;;;;;;;;;;;;8.31;100.00;99213.53;5052102;28;1401;-55
2023/04/20 01:14:33;;;;;;;;;;;;;;;8.17;100.00;99211.63;5052237;28;814;-55
2023/04/20 01:16:59;;;;;;;;;;;;;;;8.08;100.00;99225.03;5052124;28;877;-56
2023/04/20 01:19:26;;;;;;;;;;;;;;;8.02;100.00;99206.56;5052046;28;871;-56
2023/04/20 01:21:53;;;;;;;;;;;;;;;8.00;100.00;99211.69;5052036;28;1910;-56
2023/04/20 01:24:19;;;;;;;;;;;;;;;7.96;100.00;99218.00;5052228;28;861;-56
2023/04/20 01:26:45;;;;;;;;;;;;;;;7.94;100.00;99214.09;5052368;28;856;-56
2023/04/20 01:29:11;;;;;;;;;;;;;;;7.98;100.00;99221.16;5051869;28;889;-56
2023/04/20 01:31:38;;;;;;;;;;;;;;;7.98;100.00;99214.88;5051836;28;809;-56
2023/04/20 01:34:04;;;;;;;;;;;;;;;7.95;100.00;99219.19;5051771;28;806;-55
2023/04/20 01:36:32;;;;;;;;;;;;;;;7.91;100.00;99212.91;5051768;28;885;-56
2023/04/20 01:38:59;;;;;;;;;;;;;;;7.84;100.00;99214.91;5051595;28;931;-54
2023/04/20 01:41:25;;;;;;;;;;;;;;;7.75;100.00;99213.34;5051564;28;1881;-57
2023/04/20 01:43:52;;;;;;;;;;;;;;;7.68;100.00;99212.59;5051626;28;918;-57
2023/04/20 01:46:19;;;;;;;;;;;;;;;7.60;100.00;99217.34;5051622;28;851;-56
2023/04/20 01:48:45;;;;;;;;;;;;;;;7.51;100.00;99204.00;5051608;28;873;-56
2023/04/20 01:51:12;;;;;;;;;;;;;;;7.47;100.00;99210.69;5051542;28;850;-56
2023/04/20 01:53:39;;;;;;;;;;;;;;;7.38;100.00;99211.06;5051635;28;811;-56
2023/04/20 01:56:06;;;;;;;;;;;;;;;7.35;100.00;99207.16;5051530;28;913;-57
2023/04/20 01:58:32;;;;;;;;;;;;;;;7.32;100.00;99205.22;5051536;28;798;-56
2023/04/20 02:01:01;;;;;;;;;;;;;;;7.29;100.00;99202.44;5051243;28;1945;-56
2023/04/20 02:03:28;;;;;;;;;;;;;;;7.27;100.00;99202.06;5051637;28;882;-57
2023/04/20 02:05:54;;;;;;;;;;;;;;;7.25;100.00;99202.44;5051385;28;839;-57
2023/04/20 02:08:21;;;;;;;;;;;;;;;7.23;100.00;99204.03;5051311;28;905;-57
2023/04/20 02:10:48;;;;;;;;;;;;;;;7.26;100.00;99206.00;5051371;28;1012;-56
2023/04/20 02:13:14;;;;;;;;;;;;;;;7.30;100.00;99201.28;5051116;28;1376;-56
2023/04/20 02:15:40;;;;;;;;;;;;;;;7.26;100.00;99195.78;5051250;28;917;-56
2023/04/20 02:18:07;;;;;;;;;;;;;;;7.24;100.00;99198.16;5051221;28;872;-56
2023/04/20 02:20:34;;;;;;;;;;;;;;;7.17;100.00;99192.66;5051191;28;1906;-56
2023/04/20 02:23:00;;;;;;;;;;;;;;;7.11;100.00;99186.78;5051376;28;889;-56
2023/04/20 02:25:27;;;;;;;;;;;;;;;7.09;100.00;99189.13;5051214;28;887;-56
2023/04/20 02:27:53;;;;;;;;;;;;;;;7.05;100.00;99185.59;5051149;28;854;-56
2023/04/20 02:30:20;;;;;;;;;;;;;;;7.01;100.00;99198.53;5051177;28;839;-56
2023/04/20 02:32:47;;;;;;;;;;;;;;;7.02;100.00;99194.63;5051336;28;830;-57
2023/04/20 02:35:13;;;;;;;;;;;;;;;7.01;100.00;99186.78;5051049;28;930;-57
2023/04/20 02:37:40;;;;;;;;;;;;;;;7.00;100.00;99188.75;5051031;28;989;-57
2023/04/20 02:40:07;;;;;;;;;;;;;;;7.03;100.00;99189.91;5051141;28;835;-56
2023/04/20 02:42:34;;;;;;;;;;;;;;;7.10;100.00;99190.69;5054873;28;2011;-57
2023/04/20 02:45:00;;;;;;;;;;;;;;;7.21;100.00;99193.44;5054943;28;897;-57
2023/04/20 02:47:27;;;;;;;;;;;;;;;7.40;100.00;99194.19;5055173;28;889;-56
2023/04/20 02:49:54;;;;;;;;;;;;;;;7.56;100.00;99194.56;5054862;28;822;-56
2023/04/20 02:52:21;;;;;;;;;;;;;;;7.72;100.00;99192.16;5054868;28;823;-56
2023/04/20 02:54:48;;;;;;;;;;;;;;;7.86;100.00;99188.56;5054728;28;849;-57
2023/04/20 02:57:15;;;;;;;;;;;;;;;7.98;100.00;99190.09;5054779;28;954;-56
2023/04/20 02:59:42;;;;;;;;;;;;;;;8.08;100.00;99188.47;5054742;28;838;-56
2023/04/20 03:02:09;;;;;;;;;;;;;;;8.15;100.00;99180.16;5036714;28;1945;-57
2023/04/20 03:04:36;;;;;;;;;;;;;;;8.20;100.00;99181.75;5054626;28;892;-56
2023/04/20 03:07:03;;;;;;;;;;;;;;;8.22;100.00;99185.66;5054488;28;1007;-56
2023/04/20 03:09:30;;;;;;;;;;;;;;;8.18;100.00;99176.63;5054722;28;903;-56
2023/04/20 03:11:56;;;;;;;;;;;;;;;8.13;100.00;99179.81;5054325;28;1442;-56
2023/04/20 03:14:23;;;;;;;;;;;;;;;8.07;100.00;99179.44;5054318;28;950;-56
2023/04/20 03:16:50;;;;;;;;;;;;;;;8.02;100.00;99184.56;5054381;28;870;-56
2023/04/20 03:19:16;;;;;;;;;;;;;;;7.92;100.00;99184.22;5054336;28;877;-56
2023/04/20 03:21:43;;;;;;;;;;;;;;;7.80;100.00;99179.16;5054118;28;1914;-56
2023/04/20 03:24:10;;;;;;;;;;;;;;;7.65;100.00;99185.88;5054211;28;802;-56
2023/04/20 03:26:36;;;;;;;;;;;;;;;7.50;100.00;99185.13;5054220;28;850;-56
2023/04/20 03:29:02;;;;;;;;;;;;;;;7.44;100.00;99186.72;5054149;28;945;-55
2023/04/20 03:31:29;;;;;;;;;;;;;;;7.43;100.00;99185.94;5054102;28;791;-54
2023/04/20 03:33:56;;;;;;;;;;;;;;;7.50;100.00;99185.91;5054034;28;803;-56
2023/04/20 03:36:23;;;;;;;;;;;;;;;7.55;100.00;99188.28;5054030;28;807;-56
2023/04/20 03:38:50;;;;;;;;;;;;;;;7.62;100.00;99181.16;5054249;28;886;-56
2023/04/20 03:41:16;;;;;;;;;;;;;;;7.73;100.00;99187.44;5053778;28;1948;-56
2023/04/20 03:43:43;;;;;;;;;;;;;;;7.89;100.00;99195.22;5053774;28;822;-57
2023/04/20 03:46:09;;;;;;;;;;;;;;;8.07;100.00;99189.66;5053990;28;803;-56
2023/04/20 03:48:36;;;;;;;;;;;;;;;8.22;100.00;99185.66;5053949;28;885;-56
2023/04/20 03:51:02;;;;;;;;;;;;;;;8.35;100.00;99197.75;5053838;28;854;-56
2023/04/20 03:53:29;;;;;;;;;;;;;;;8.45;100.00;99195.38;5052419;28;874;-56
2023/04/20 03:55:56;;;;;;;;;;;;;;;8.52;100.00;99187.84;5035735;28;876;-56
2023/04/20 03:58:22;;;;;;;;;;;;;;;8.56;100.00;99194.13;5053659;28;823;-56
2023/04/20 04:00:49;;;;;;;;;;;;;;;8.59;100.00;99195.28;5053673;28;1947;-57
2023/04/20 04:03:15;;;;;;;;;;;;;;;8.59;100.00;99195.28;5053517;28;865;-56
2023/04/20 04:05:42;;;;;;;;;;;;;;;8.53;100.00;99192.16;5053558;28;857;-57
2023/04/20 04:08:08;;;;;;;;;;;;;;;8.58;100.00;99197.25;5053418;28;901;-57
2023/04/20 04:10:35;;;;;;;;;;;;;;;8.67;100.00;99204.31;5053486;28;867;-56
2023/04/20 04:13:01;;;;;;;;;;;;;;;8.76;100.00;99201.88;5053229;28;1224;-57
2023/04/20 04:15:27;;;;;;;;;;;;;;;8.91;100.00;99205.31;5053603;28;839;-56
2023/04/20 04:17:55;;;;;;;;;;;;;;;8.98;100.00;99213.50;5053398;28;846;-56
2023/04/20 04:20:21;;;;;;;;;;;;;;;9.02;100.00;99207.97;5053254;28;862;-56
2023/04/20 04:22:47;;;;;;;;;;;;;;;9.03;100.00;99212.31;5053101;28;1910;-56
2023/04/20 04:25:14;;;;;;;;;;;;;;;9.06;100.00;99214.25;5053142;28;858;-56
2023/04/20 04:27:40;;;;;;;;;;;;;;;9.15;100.00;99215.34;5053060;28;814;-56
2023/04/20 04:30:08;;;;;;;;;;;;;;;9.30;100.00;99217.97;5053134;28;925;-55
2023/04/20 04:32:35;;;;;;;;;;;;;;;9.51;100.00;99206.72;5053132;28;982;-56
2023/04/20 04:35:02;;;;;;;;;;;;;;;9.56;100.00;99219.31;5052887;28;870;-56
2023/04/20 04:37:29;;;;;;;;;;;;;;;9.52;100.00;99215.81;5052841;28;1273;-55
2023/04/20 04:39:57;;;;;;;;;;;;;;;9.44;100.00;99215.06;5052782;28;811;-55
2023/04/20 04:42:23;;;;;;;;;;;;;;;9.43;100.00;99221.81;5053496;28;1882;-55
2023/04/20 04:44:51;;;;;;;;;;;;;;;9.46;100.00;99220.19;5052717;28;819;-54
2023/04/20 04:47:20;;;;;;;;;;;;;;;9.52;100.00;99221.31;5052877;28;799;-55
2023/04/20 04:49:47;;;;;;;;;;;;;;;9.61;100.00;99222.38;5052566;28;838;-54
2023/04/20 04:52:13;;;;;;;;;;;;;;;9.73;100.00;99229.38;5052878;28;807;-55
2023/04/20 04:54:40;;;;;;;;;;;;;;;9.94;100.00;99217.31;5052832;28;858;-54
2023/04/20 04:57:06;;;;;;;;;;;;;;;10.24;100.00;99221.25;5052548;28;917;-55
2023/04/20 04:59:32;;;;;;;;;;;;;;;10.63;100.00;99222.75;5053191;28;763;-54
2023/04/20 05:01:59;;;;;;;;;;;;;;;10.96;100.00;99221.06;5052301;28;1914;-55
2023/04/20 05:04:26;;;;;;;;;;;;;;;11.18;100.00;99224.28;5051943;28;822;-54
2023/04/20 05:06:52;;;;;;;;;;;;;;;11.35;100.00;99222.41;5052309;28;822;-55
2023/04/20 05:09:18;;;;;;;;;;;;;;;11.51;100.00;99224.50;5052456;28;1024;-53
2023/04/20 05:11:46;;;;;;;;;;;;;;;11.50;100.00;99222.16;5052021;28;1292;-55
2023/04/20 05:14:13;;;;;;;;;;;;;;;11.35;100.00;99222.41;5034261;28;2075;-54
2023/04/20 05:16:39;;;;;;;;;;;;;;;11.26;100.00;99218.63;5052234;28;799;-54
2023/04/20 05:19:06;;;;;;;;;;;;;;;11.21;100.00;99220.66;5034174;28;1690;-54
2023/04/20 05:21:38;;;;;;;;;;;;;;;11.23;100.00;99226.56;5052215;28;1906;-55
2023/04/20 05:24:05;;;;;;;;;;;;;;;11.20;100.00;99218.31;5052151;28;844;-54
2023/04/20 05:26:31;;;;;;;;;;;;;;;11.26;100.00;99219.41;5052490;28;866;-55
2023/04/20 05:28:58;;;;;;;;;;;;;;;11.39;100.00;99225.09;5052184;28;881;-54
2023/04/20 05:31:25;;;;;;;;;;;;;;;11.68;100.00;99228.16;5052317;28;1203;-55
2023/04/20 05:33:51;;;;;;;;;;;;;;;12.04;100.00;99225.50;5052230;28;830;-54
2023/04/20 05:36:17;;;;;;;;;;;;;;;12.40;100.00;99226.75;5052432;28;798;-54
2023/04/20 05:38:44;;;;;;;;;;;;;;;12.66;100.00;99220.22;5051810;28;841;-53
2023/04/20 05:41:10;;;;;;;;;;;;;;;12.85;100.00;99220.59;5051598;28;1941;-56
2023/04/20 05:43:36;;;;;;;;;;;;;;;12.94;100.00;99231.09;5051704;28;854;-55
2023/04/20 05:46:03;;;;;;;;;;;;;;;12.95;100.00;99227.91;5051645;28;803;-55
2023/04/20 05:48:30;;;;;;;;;;;;;;;13.05;100.00;99232.38;5051791;28;811;-55
2023/04/20 05:50:57;;;;;;;;;;;;;;;13.23;100.00;99237.50;5051491;28;882;-54
2023/04/20 05:53:23;;;;;;;;;;;;;;;13.45;100.00;99226.66;5051584;28;835;-55
2023/04/20 05:55:49;;;;;;;;;;;;;;;13.83;100.00;99237.19;5051480;28;1017;-54
2023/04/20 05:58:16;;;;;;;;;;;;;;;14.16;100.00;99227.94;5033576;28;1362;-55
2023/04/20 06:00:42;;;;;;;;;;;;;;;14.52;100.00;99235.25;5051373;28;1906;-55
2023/04/20 06:03:09;;;;;;;;;;;;;;;14.78;100.00;99225.72;5051427;28;827;-56
2023/04/20 06:05:35;;;;;;;;;;;;;;;14.73;100.00;99231.84;5051414;28;854;-55
2023/04/20 06:08:02;;;;;;;;;;;;;;;14.39;100.00;99222.09;5051204;28;1122;-57
2023/04/20 06:10:31;;;;;;;;;;;;;;;14.47;100.00;99226.22;5051379;28;872;-54
2023/04/20 06:12:57;;;;;;;;;;;;;;;14.87;100.00;99225.03;5051012;28;1244;-55
2023/04/20 06:15:23;;;;;;;;;;;;;;;15.03;100.00;99216.56;5051980;28;889;-55
2023/04/20 06:17:49;;;;;;;;;;;;;;;15.00;100.00;99223.03;5055493;28;1056;-55
2023/04/20 06:20:16;;;;;;;;;;;;;;;15.38;100.00;99216.59;5055316;28;803;-55
2023/04/20 06:22:44;;;;;;;;;;;;;;;15.26;100.00;99215.44;5055204;28;1969;-56
2023/04/20 06:25:11;;;;;;;;;;;;;;;15.27;100.00;99219.75;5055257;28;929;-55
2023/04/20 06:27:37;;;;;;;;;;;;;;;15.02;100.00;99220.59;5037314;28;1614;-54
2023/04/20 06:30:04;;;;;;;;;;;;;;;14.53;100.00;99234.00;5055272;28;952;-55
2023/04/20 06:32:30;;;;;;;;;;;;;;;14.53;100.00;99231.22;5055214;28;839;-55
2023/04/20 06:34:57;;;;;;;;;;;;;;;14.61;100.00;99229.81;5055223;28;871;-54
2023/04/20 06:37:24;;;;;;;;;;;;;;;15.06;100.00;99232.38;5055031;28;858;-54
2023/04/20 06:39:54;;;;;;;;;;;;;;;15.62;100.00;99228.13;5054947;28;922;-55
2023/04/20 06:42:21;;;;;;;;;;;;;;;15.38;100.00;99222.16;5054997;28;1881;-55
2023/04/20 06:44:48;;;;;;;;;;;;;;;15.18;100.00;99227.25;5055022;28;810;-55
2023/04/20 06:47:18;;;;;;;;;;;;;;;14.84;100.00;99229.50;5054831;28;910;-56
2023/04/20 06:49:44;;;;;;;;;;;;;;;14.65;100.00;99236.81;5053572;28;1505;-56
2023/04/20 06:52:11;;;;;;;;;;;;;;;14.68;100.00;99235.19;5054817;28;945;-57
2023/04/20 06:54:37;;;;;;;;;;;;;;;15.41;100.00;99226.88;5054753;28;814;-55
2023/04/20 06:57:04;;;;;;;;;;;;;;;15.56;100.00;99224.38;5054996;28;935;-54
2023/04/20 06:59:31;;;;;;;;;;;;;;;17.89;100.00;99232.09;5054727;28;834;-55
2023/04/20 07:01:57;;;;;;;;;;;;;;;18.13;100.00;99235.03;5054555;28;1951;-57
2023/04/20 07:04:24;;;;;;;;;;;;;;;17.11;100.00;99241.75;5054663;28;866;-57
2023/04/20 07:06:51;;;;;;;;;;;;;;;16.05;100.00;99240.56;5054746;28;937;-55
2023/04/20 07:09:18;;;;;;;;;;;;;;;15.87;100.00;99235.66;5054773;28;901;-55
2023/04/20 07:11:44;;;;;;;;;;;;;;;15.73;100.00;99246.53;5054126;28;1403;-54
2023/04/20 07:14:10;;;;;;;;;;;;;;;15.48;100.00;99236.97;5054361;28;874;-56
2023/04/20 07:16:37;;;;;;;;;;;;;;;15.43;100.00;99238.31;5054357;28;811;-57
2023/04/20 07:19:04;;;;;;;;;;;;;;;15.32;100.00;99235.13;5054342;28;823;-56
2023/04/20 07:21:31;;;;;;;;;;;;;;;16.03;100.00;99250.63;5054382;28;1978;-58
2023/04/20 07:23:57;;;;;;;;;;;;;;;15.95;100.00;99250.09;5054315;28;831;-57
2023/04/20 07:38:35;;;;;;;;;;;;;;;16.83;100.00;99260.41;5054360;28;613;-56
2023/04/20 07:41:02;;;;;;;;;;;;;;;16.98;100.00;99255.81;5053850;28;1907;-55
2023/04/20 07:43:28;;;;;;;;;;;;;;;16.63;100.00;99261.53;5053845;28;818;-57
2023/04/20 07:45:54;;;;;;;;;;;;;;;16.04;100.00;99257.75;5053831;28;834;-57
2023/04/20 07:48:20;;;;;;;;;;;;;;;15.86;100.00;99261.19;5053791;28;906;-56
2023/04/20 07:50:47;;;;;;;;;;;;;;;15.61;100.00;99259.22;5053793;28;1120;-57
2023/04/20 07:53:13;;;;;;;;;;;;;;;15.43;100.00;99263.38;5053777;28;823;-58
2023/04/20 07:55:40;;;;;;;;;;;;;;;15.20;100.00;99260.97;5053785;28;831;-56
2023/04/20 07:58:07;;;;;;;;;;;;;;;15.19;100.00;99260.22;5053519;28;899;-57
2023/04/20 08:00:33;;;;;;;;;;;;;;;15.35;100.00;99266.88;5053611;28;862;-55
2023/04/20 10:11:41;;;;;;;;;;;;;;;14.94;100.00;99251.88;4996413;28;1494;-57
2023/04/20 10:14:17;;;;;;;;;;;;;;;15.34;100.00;99245.78;4992143;28;818;-56
2023/04/20 10:16:45;;;;;;;;;;;;;;;15.57;100.00;99247.41;4992179;28;811;-55
2023/04/20 10:19:12;;;;;;;;;;;;;;;16.19;100.00;99242.06;4992334;28;954;-56
2023/04/20 10:21:49;;;;;;;;;;;;;;;16.31;100.00;99248.81;4992066;28;1969;-56
2023/04/20 10:24:27;;;;;;;;;;;;;;;16.60;98.62;99251.31;4992286;28;864;-56
2023/04/20 10:26:54;;;;;;;;;;;;;;;16.18;98.12;99242.53;4991948;28;906;-58
2023/04/20 10:29:24;;;;;;;;;;;;;;;16.12;100.00;99250.69;4992120;28;810;-57
2023/04/20 10:31:52;;;;;;;;;;;;;;;16.07;100.00;99252.06;4991913;28;1301;-55
2023/04/20 10:34:31;;;;;;;;;;;;;;;15.47;100.00;99254.94;4992162;28;984;-56
2023/04/20 10:37:08;;;;;;;;;;;;;;;14.98;100.00;99249.72;4992092;28;879;-58
2023/04/20 10:39:36;;;;;;;;;;;;;;;14.59;100.00;99249.72;4991724;28;967;-56
2023/04/20 10:42:03;;;;;;;;;;;;;;;14.68;100.00;99263.00;4991801;28;1973;-56
2023/04/20 10:44:29;;;;;;;;;;;;;;;14.80;100.00;99248.28;4991985;28;859;-57
2023/04/20 10:46:56;;;;;;;;;;;;;;;14.84;100.00;99260.09;4974573;28;788;-58
2023/04/20 10:49:25;;;;;;;;;;;;;;;15.07;100.00;99261.00;4991783;28;859;-54
2023/04/20 10:51:52;;;;;;;;;;;;;;;15.26;100.00;99251.63;4991864;28;885;-55
2023/04/20 10:54:19;;;;;;;;;;;;;;;15.74;100.00;99248.06;4991807;28;878;-57
2023/04/20 10:56:47;;;;;;;;;;;;;;;15.82;100.00;99255.72;4991845;28;862;-57
2023/04/20 10:59:14;;;;;;;;;;;;;;;15.68;100.00;99254.19;4974793;28;918;-57
2023/04/20 11:05:13;;;;;;;;;;;;;;;15.70;100.00;99257.31;4995465;28;669;-58
2023/04/20 11:10:43;;;;;;;;;;;;;;;16.42;100.00;99263.13;4997670;28;1215;-55
2023/04/20 11:13:24;;;;;;;;;;;;;;;16.61;98.49;99266.78;5014927;28;831;-56
2023/04/20 11:15:50;;;;;;;;;;;;;;;16.59;97.28;99263.69;5014922;28;822;-57
2023/04/20 11:18:17;;;;;;;;;;;;;;;16.81;96.15;99271.25;5014903;28;873;-56
2023/04/20 11:20:52;;;;;;;;;;;;;;;16.69;92.02;99270.09;5014712;28;1104;-54
2023/04/20 11:23:20;;;;;;;;;;;;;;;16.43;94.52;99269.47;4996970;28;1911;-55
2023/04/20 11:25:52;;;;;;;;;;;;;;;16.84;95.95;99267.56;5014437;28;878;-57
2023/04/20 11:28:18;;;;;;;;;;;;;;;16.19;94.01;99263.59;5014510;28;963;-59
2023/04/20 11:30:45;;;;;;;;;;;;;;;15.84;94.88;99260.84;5014421;28;934;-59
2023/04/20 11:33:12;;;;;;;;;;;;;;;15.82;97.75;99268.88;5014433;28;977;-54
2023/04/20 11:47:51;;;;;;;;;;;;;;;15.99;100.00;99245.16;5014528;28;688;-56
2023/04/20 11:50:18;;;;;;;;;;;;;;;16.10;99.52;99245.56;5014056;28;957;-57
2023/04/20 11:52:44;;;;;;;;;;;;;;;15.91;96.00;99244.63;5014086;28;858;-56
2023/04/20 11:55:11;;;;;;;;;;;;;;;16.00;96.72;99241.16;5014047;28;854;-57
2023/04/20 11:57:38;;;;;;;;;;;;;;;16.19;98.51;99233.69;5013909;28;922;-57
2023/04/20 12:00:06;;;;;;;;;;;;;;;16.37;97.30;99224.66;5013992;28;830;-57
2023/04/20 12:02:35;;;;;;;;;;;;;;;16.52;92.18;99222.88;5014076;28;1902;-59
2023/04/20 12:05:02;;;;;;;;;;;;;;;16.43;91.30;99230.41;5013806;28;819;-58
2023/04/20 12:07:28;;;;;;;;;;;;;;;16.36;91.87;99236.28;5013680;28;877;-58
2023/04/20 12:09:57;;;;;;;;;;;;;;;16.28;93.53;99219.81;5014054;28;918;-58
2023/04/20 12:12:25;;;;;;;;;;;;;;;16.36;94.98;99227.91;4997186;28;1268;-58
2023/04/20 12:14:51;;;;;;;;;;;;;;;16.48;93.10;99225.03;4993326;28;927;-55
2023/04/20 12:17:18;;;;;;;;;;;;;;;16.37;93.33;99224.66;4994125;28;885;-58
2023/04/20 12:19:46;;;;;;;;;;;;;;;16.22;93.24;99218.09;4993762;28;934;-58
2023/04/20 12:22:12;;;;;;;;;;;;;;;16.27;95.14;99221.03;4993826;28;1911;-58
2023/04/20 12:24:39;;;;;;;;;;;;;;;16.17;97.19;99221.44;4993899;28;866;-58
2023/04/20 12:27:06;;;;;;;;;;;;;;;15.90;97.30;99211.69;4993888;28;803;-58
2023/04/20 12:29:32;;;;;;;;;;;;;;;15.87;98.90;99215.34;4994024;28;937;-58
2023/04/20 12:31:59;;;;;;;;;;;;;;;16.49;96.85;99203.50;4993849;28;842;-58
2023/04/20 12:34:25;;;;;;;;;;;;;;;16.61;95.67;99210.22;4993712;28;925;-58
2023/04/20 12:36:52;;;;;;;;;;;;;;;16.77;93.58;99201.63;4993613;28;1242;-58
2023/04/20 12:39:18;;;;;;;;;;;;;;;17.05;92.00;99218.47;4993708;28;823;-59
2023/04/20 12:41:45;;;;;;;;;;;;;;;17.65;92.63;99198.38;4993788;28;1961;-58
2023/04/20 12:44:12;;;;;;;;;;;;;;;17.15;90.81;99197.69;4993455;28;875;-59
2023/04/20 12:46:38;;;;;;;;;;;;;;;16.74;92.63;99200.50;4993314;28;914;-58
2023/04/20 12:49:05;;;;;;;;;;;;;;;17.06;93.14;99198.47;4993519;28;882;-58
2023/04/20 12:51:31;;;;;;;;;;;;;;;17.56;92.64;99198.41;4993605;28;823;-58
2023/04/20 12:53:59;;;;;;;;;;;;;;;17.68;90.87;99193.88;4993268;28;929;-58
2023/04/20 12:56:25;;;;;;;;;;;;;;;18.15;88.50;99201.00;4993198;28;926;-59
2023/04/20 12:58:51;;;;;;;;;;;;;;;18.57;83.81;99192.63;4993202;28;855;-59
2023/04/20 13:01:18;;;;;;;;;;;;;;;17.91;80.18;99195.28;4993128;28;1955;-59
2023/04/20 13:03:45;;;;;;;;;;;;;;;17.67;80.00;99200.72;4993193;28;878;-59
2023/04/20 13:06:11;;;;;;;;;;;;;;;17.49;74.19;99204.28;4993168;28;918;-59
2023/04/20 13:08:38;;;;;;;;;;;;;;;17.82;73.30;99190.50;4993434;28;924;-59
2023/04/20 13:11:05;;;;;;;;;;;;;;;18.76;72.01;99182.16;4998147;28;1441;-58
2023/04/20 13:13:31;;;;;;;;;;;;;;;19.42;69.40;99183.34;5012445;28;886;-59
2023/04/20 13:15:59;;;;;;;;;;;;;;;19.43;66.84;99178.50;5012652;28;819;-59
2023/04/20 13:21:28;;;;;;;;;;;;;;;19.43;60.15;99182.06;5012568;28;1987;-60
2023/04/20 13:23:54;;;;;;;;;;;;;;;19.07;62.89;99185.91;5012248;28;823;-59
2023/04/20 13:26:21;;;;;;;;;;;;;;;18.69;63.73;99178.91;5012528;28;823;-60
2023/04/20 13:28:47;;;;;;;;;;;;;;;17.60;65.68;99192.63;5012312;28;871;-59
2023/04/20 13:31:14;;;;;;;;;;;;;;;17.04;69.71;99189.00;5012315;28;881;-59
2023/04/20 13:33:40;;;;;;;;;;;;;;;16.68;71.80;99196.75;5011020;28;854;-59
2023/04/20 13:36:07;;;;;;;;;;;;;;;16.49;71.63;99195.13;5012183;28;858;-58
2023/04/20 13:38:34;;;;;;;;;;;;;;;16.48;74.04;99191.56;5012190;28;906;-59
2023/04/20 13:41:00;;;;;;;;;;;;;;;16.26;72.58;99191.63;5012127;28;1890;-58
2023/04/20 13:43:27;;;;;;;;;;;;;;;16.16;73.78;99192.03;5010665;28;1205;-59
2023/04/20 13:45:54;;;;;;;;;;;;;;;16.10;74.48;99192.59;5012062;28;831;-58
2023/04/20 13:48:20;;;;;;;;;;;;;;;15.98;75.41;99182.31;5011923;28;895;-59
2023/04/20 13:50:47;;;;;;;;;;;;;;;15.92;76.65;99179.31;5011822;28;883;-58
2023/04/20 13:53:13;;;;;;;;;;;;;;;16.04;77.00;99193.63;5012062;28;819;-58
2023/04/20 13:55:39;;;;;;;;;;;;;;;16.18;80.20;99195.13;5012021;28;857;-58
2023/04/20 13:58:06;;;;;;;;;;;;;;;16.38;79.93;99192.75;5011659;28;930;-58
2023/04/20 14:00:32;;;;;;;;;;;;;;;16.98;78.39;99188.81;5011894;28;874;-58
2023/04/20 14:02:59;;;;;;;;;;;;;;;18.14;75.55;99182.69;5011853;28;1890;-58
2023/04/20 14:05:25;;;;;;;;;;;;;;;19.47;65.22;99188.28;5011715;28;932;-59
2023/04/20 14:07:52;;;;;;;;;;;;;;;19.26;61.36;99183.75;5011962;28;826;-58
2023/04/20 14:23:11;;;;;;;;;;;;;;;17.33;62.69;99206.13;4992159;28;1974;-58
2023/04/20 14:25:37;;;;;;;;;;;;;;;16.82;65.66;99217.00;4991983;28;1013;-58
2023/04/20 14:28:03;;;;;;;;;;;;;;;16.42;67.30;99203.78;4992096;28;898;-58
2023/04/20 14:30:30;;;;;;;;;;;;;;;16.16;69.44;99208.75;4992076;28;791;-58
2023/04/20 14:32:58;;;;;;;;;;;;;;;16.07;70.20;99215.81;4991938;28;832;-58
2023/04/20 14:35:26;;;;;;;;;;;;;;;16.21;70.49;99210.94;4991928;28;894;-58
2023/04/20 14:37:53;;;;;;;;;;;;;;;16.10;71.38;99214.13;4994865;28;863;-58
2023/04/20 14:40:19;;;;;;;;;;;;;;;16.04;71.25;99218.72;4995772;28;886;-58
2023/04/20 14:42:46;;;;;;;;;;;;;;;16.11;72.89;99212.91;4978376;28;1970;-58
2023/04/20 14:45:12;;;;;;;;;;;;;;;16.05;72.47;99211.94;4995803;28;818;-57
2023/04/20 14:47:42;;;;;;;;;;;;;;;16.04;73.42;99202.78;4995689;28;834;-58
2023/04/20 14:50:09;;;;;;;;;;;;;;;15.74;73.94;99198.69;4995693;28;799;-59
2023/04/20 14:52:36;;;;;;;;;;;;;;;15.58;75.59;99201.66;4995644;28;843;-58
2023/04/20 14:55:03;;;;;;;;;;;;;;;15.57;77.00;99192.47;4995587;28;816;-58
2023/04/20 14:57:30;;;;;;;;;;;;;;;15.42;75.64;99199.78;4995541;28;799;-57
2023/04/20 14:59:56;;;;;;;;;;;;;;;15.24;77.00;99198.38;4995723;28;911;-58
2023/04/20 15:02:23;;;;;;;;;;;;;;;15.17;77.64;99198.63;4995343;28;1953;-57
2023/04/20 15:04:49;;;;;;;;;;;;;;;15.11;78.27;99183.72;4995278;28;859;-58
2023/04/20 15:07:17;;;;;;;;;;;;;;;15.14;78.56;99193.19;4995365;28;949;-58
2023/04/20 15:09:44;;;;;;;;;;;;;;;15.16;79.78;99196.28;4995486;28;1035;-58
2023/04/20 15:12:10;;;;;;;;;;;;;;;15.18;79.66;99197.41;4995257;28;909;-58
2023/04/20 15:14:36;;;;;;;;;;;;;;;15.17;79.32;99204.19;4995264;28;882;-58
2023/04/20 15:17:35;;;;;;;;;;;;;;;15.39;78.88;99203.47;4995177;28;872;-58
2023/04/20 15:20:03;;;;;;;;;;;;;;;15.60;79.22;99205.53;4996871;28;1247;-58
2023/04/20 15:22:30;;;;;;;;;;;;;;;15.59;79.04;99203.94;5014409;28;1906;-58
2023/04/20 15:24:57;;;;;;;;;;;;;;;15.69;79.61;99205.59;4996939;28;850;-57
2023/04/20 15:27:23;;;;;;;;;;;;;;;15.66;79.22;99211.28;5014609;28;799;-58
2023/04/20 15:29:50;;;;;;;;;;;;;;;15.51;79.27;99213.78;5014522;28;961;-58
2023/04/20 15:32:17;;;;;;;;;;;;;;;15.53;80.61;99214.09;5014499;28;870;-57
2023/04/20 15:34:43;;;;;;;;;;;;;;;15.54;78.51;99206.56;4996865;28;1283;-57
2023/04/20 15:37:10;;;;;;;;;;;;;;;15.41;76.85;99212.94;5014421;28;906;-58
2023/04/20 15:39:36;;;;;;;;;;;;;;;15.48;78.25;99209.91;5014357;28;851;-57
2023/04/20 15:42:02;;;;;;;;;;;;;;;15.57;77.62;99209.19;5014352;28;1886;-58
2023/04/20 15:44:29;;;;;;;;;;;;;;;15.69;76.62;99205.59;5014284;28;910;-56
2023/04/20 15:46:57;;;;;;;;;;;;;;;15.85;76.43;99212.22;5014170;28;845;-57
2023/04/20 15:49:23;;;;;;;;;;;;;;;15.78;74.94;99220.84;5014221;28;898;-57
2023/04/20 15:51:50;;;;;;;;;;;;;;;15.54;76.43;99214.91;5014176;28;843;-57
2023/04/20 15:54:18;;;;;;;;;;;;;;;15.63;75.64;99226.13;5014178;28;882;-56
2023/04/20 15:56:44;;;;;;;;;;;;;;;15.82;76.45;99224.31;5013957;28;1069;-55